createdAt,value
2023-03-06T00:01:18.778Z,3.91
2023-03-06T00:03:40.311Z,3.78
2023-03-06T00:06:02.114Z,3.49
2023-03-06T00:08:24.279Z,3.55
2023-03-06T00:10:45.992Z,3.56
2023-03-06T00:13:10.710Z,3.40
2023-03-06T00:15:32.809Z,3.47
2023-03-06T00:17:55.275Z,3.38
2023-03-06T00:20:17.203Z,3.47
2023-03-06T00:22:39.032Z,3.39
2023-03-06T00:25:00.487Z,3.31
2023-03-06T00:27:22.160Z,3.19
2023-03-06T00:29:44.780Z,3.12
2023-03-06T00:32:06.763Z,3.01
2023-03-06T00:34:28.280Z,3.00
2023-03-06T00:36:49.716Z,3.00
2023-03-06T00:39:11.237Z,3.26
2023-03-06T00:41:32.724Z,3.28
2023-03-06T00:43:54.169Z,3.24
2023-03-06T00:46:15.591Z,3.38
2023-03-06T00:48:37.081Z,3.24
2023-03-06T00:50:58.683Z,3.15
2023-03-06T00:53:20.148Z,3.20
2023-03-06T00:55:44.844Z,3.19
2023-03-06T00:58:06.304Z,3.22
2023-03-06T01:00:27.726Z,3.21
2023-03-06T01:02:49.155Z,3.16
2023-03-06T01:05:14.066Z,3.16
2023-03-06T01:07:36.984Z,3.18
2023-03-06T01:09:58.395Z,3.27
2023-03-06T01:12:22.781Z,3.11
2023-03-06T01:14:45.019Z,3.32
2023-03-06T01:17:06.496Z,3.42
2023-03-06T01:19:27.974Z,3.46
2023-03-06T01:21:49.418Z,3.55
2023-03-06T01:24:10.897Z,3.60
2023-03-06T01:26:33.479Z,3.58
2023-03-06T01:28:57.396Z,3.24
2023-03-06T01:31:18.941Z,3.38
2023-03-06T01:33:40.496Z,3.31
2023-03-06T01:36:07.776Z,3.15
2023-03-06T01:38:29.725Z,3.03
2023-03-06T01:40:51.580Z,2.98
2023-03-06T01:43:28.544Z,2.97
2023-03-06T01:45:50.025Z,2.79
2023-03-06T01:48:11.553Z,2.75
2023-03-06T01:50:33.068Z,2.66
2023-03-06T01:52:59.880Z,2.63
2023-03-06T01:55:25.909Z,2.78
2023-03-06T01:57:55.168Z,2.80
2023-03-06T02:00:24.214Z,2.73
2023-03-06T02:02:53.230Z,2.74
2023-03-06T02:05:14.720Z,2.74
2023-03-06T02:07:37.822Z,2.75
2023-03-06T02:09:59.423Z,2.72
2023-03-06T02:12:22.212Z,2.81
2023-03-06T02:14:43.928Z,3.02
2023-03-06T02:17:07.269Z,3.03
2023-03-06T02:19:43.139Z,3.09
2023-03-06T02:22:04.640Z,3.06
2023-03-06T02:24:45.681Z,3.11
2023-03-06T02:27:09.615Z,2.94
2023-03-06T02:29:31.724Z,2.77
2023-03-06T02:31:53.245Z,2.88
2023-03-06T02:34:14.637Z,2.80
2023-03-06T02:36:40.794Z,2.80
2023-03-06T02:39:02.525Z,2.92
2023-03-06T02:41:24.413Z,2.89
2023-03-06T02:43:47.969Z,2.85
2023-03-06T02:46:09.712Z,2.85
2023-03-06T02:48:31.381Z,2.77
2023-03-06T02:50:52.808Z,2.73
2023-03-06T02:53:16.871Z,2.73
2023-03-06T02:55:38.413Z,2.57
2023-03-06T02:58:00.318Z,2.51
2023-03-06T03:00:22.181Z,2.54
2023-03-06T03:02:44.062Z,2.51
2023-03-06T03:05:06.047Z,2.42
2023-03-06T03:07:27.486Z,2.55
2023-03-06T03:09:48.979Z,2.40
2023-03-06T03:12:10.676Z,2.40
2023-03-06T03:14:32.260Z,2.28
2023-03-06T03:16:54.105Z,2.32
2023-03-06T03:19:15.569Z,2.34
2023-03-06T03:21:37.042Z,2.38
2023-03-06T03:23:58.504Z,2.38
2023-03-06T03:26:21.542Z,2.37
2023-03-06T03:28:43.238Z,2.38
2023-03-06T03:31:07.699Z,2.42
2023-03-06T03:33:29.642Z,2.46
2023-03-06T03:35:57.943Z,2.50
2023-03-06T03:38:19.677Z,2.44
2023-03-06T03:40:41.124Z,2.52
2023-03-06T03:43:02.806Z,2.50
2023-03-06T03:45:24.327Z,2.44
2023-03-06T03:47:45.789Z,2.49
2023-03-06T03:50:08.402Z,2.40
2023-03-06T03:52:29.836Z,2.38
2023-03-06T03:54:51.293Z,2.37
2023-03-06T03:57:12.739Z,2.38
2023-03-06T03:59:34.219Z,2.38
2023-03-06T04:01:56.086Z,2.45
2023-03-06T04:04:17.637Z,2.41
2023-03-06T04:06:39.132Z,2.47
2023-03-06T04:09:00.581Z,2.48
2023-03-06T04:11:22.212Z,2.47
2023-03-06T04:13:43.747Z,2.64
2023-03-06T04:16:05.778Z,2.56
2023-03-06T04:18:27.351Z,2.57
2023-03-06T04:20:49.549Z,2.68
2023-03-06T04:23:11.527Z,2.87
2023-03-06T04:25:33.296Z,2.93
2023-03-06T04:27:54.779Z,3.00
2023-03-06T04:30:16.337Z,3.05
2023-03-06T04:32:37.797Z,3.28
2023-03-06T04:34:59.315Z,3.13
2023-03-06T04:37:23.720Z,3.22
2023-03-06T04:39:45.183Z,3.31
2023-03-06T04:42:06.785Z,3.28
2023-03-06T04:44:28.246Z,3.15
2023-03-06T04:46:49.681Z,3.11
2023-03-06T04:49:11.241Z,3.07
2023-03-06T04:51:32.741Z,3.18
2023-03-06T04:53:54.206Z,3.34
2023-03-06T04:56:15.638Z,3.35
2023-03-06T04:58:37.483Z,3.53
2023-03-06T05:00:59.090Z,3.64
2023-03-06T05:03:20.543Z,3.73
2023-03-06T05:05:42.146Z,3.55
2023-03-06T05:08:03.725Z,3.69
2023-03-06T05:10:25.173Z,3.56
2023-03-06T05:12:46.751Z,3.28
2023-03-06T05:15:09.684Z,3.39
2023-03-06T05:17:31.312Z,3.49
2023-03-06T05:19:52.817Z,3.39
2023-03-06T05:22:14.254Z,3.41
2023-03-06T05:24:36.623Z,3.20
2023-03-06T05:26:58.074Z,2.98
2023-03-06T05:29:19.604Z,2.94
2023-03-06T05:31:41.099Z,2.86
2023-03-06T05:34:02.626Z,2.72
2023-03-06T05:36:24.412Z,2.51
2023-03-06T05:38:45.885Z,2.60
2023-03-06T05:41:11.689Z,2.49
2023-03-06T05:43:33.164Z,2.40
2023-03-06T05:46:05.466Z,2.46
2023-03-06T05:48:27.039Z,2.52
2023-03-06T05:50:55.244Z,2.40
2023-03-06T05:53:16.685Z,2.45
2023-03-06T05:55:38.189Z,2.37
2023-03-06T05:57:59.856Z,2.43
2023-03-06T06:00:22.393Z,2.46
2023-03-06T06:02:44.020Z,2.50
2023-03-06T06:05:05.884Z,2.62
2023-03-06T06:07:27.337Z,2.63
2023-03-06T06:09:52.700Z,2.71
2023-03-06T06:12:14.320Z,2.64
2023-03-06T06:14:35.809Z,2.63
2023-03-06T06:16:57.233Z,2.63
2023-03-06T06:19:20.134Z,2.60
2023-03-06T06:21:41.615Z,2.53
2023-03-06T06:24:03.224Z,2.47
2023-03-06T06:26:24.671Z,2.41
2023-03-06T06:28:46.126Z,2.55
2023-03-06T06:31:09.893Z,2.54
2023-03-06T06:33:31.393Z,2.50
2023-03-06T06:35:53.111Z,2.36
2023-03-06T06:38:14.644Z,2.30
2023-03-06T06:40:36.135Z,2.38
2023-03-06T06:42:57.573Z,2.39
2023-03-06T06:45:19.109Z,2.41
2023-03-06T06:47:41.579Z,2.43
2023-03-06T06:50:03.542Z,2.34
2023-03-06T06:52:25.511Z,2.37
2023-03-06T06:54:47.257Z,2.30
2023-03-06T06:57:10.453Z,2.37
2023-03-06T06:59:32.032Z,2.29
2023-03-06T07:01:53.569Z,2.36
2023-03-06T07:04:15.643Z,2.51
2023-03-06T07:06:37.139Z,2.45
2023-03-06T07:08:58.647Z,2.56
2023-03-06T07:11:20.692Z,2.53
2023-03-06T07:13:42.195Z,2.55
2023-03-06T07:16:04.093Z,2.57
2023-03-06T07:18:25.540Z,2.66
2023-03-06T07:20:47.000Z,2.67
2023-03-06T07:23:12.382Z,2.67
2023-03-06T07:25:33.861Z,2.67
2023-03-06T07:27:55.726Z,2.74
2023-03-06T07:30:17.354Z,2.93
2023-03-06T07:32:39.014Z,2.85
2023-03-06T07:35:18.782Z,2.94
2023-03-06T07:37:41.605Z,3.08
2023-03-06T07:40:04.557Z,3.07
2023-03-06T07:42:27.369Z,3.02
2023-03-06T07:44:48.883Z,3.08
2023-03-06T07:47:12.442Z,3.04
2023-03-06T07:49:34.545Z,3.16
2023-03-06T07:51:55.984Z,3.14
2023-03-06T07:54:17.440Z,3.20
2023-03-06T07:56:39.002Z,3.31
2023-03-06T07:59:01.156Z,3.26
2023-03-06T08:01:24.294Z,3.30
2023-03-06T08:03:47.125Z,3.22
2023-03-06T08:06:10.703Z,3.36
2023-03-06T08:08:34.420Z,3.46
2023-03-06T08:10:55.924Z,3.52
2023-03-06T08:13:17.360Z,3.29
2023-03-06T08:15:38.859Z,3.39
2023-03-06T08:18:00.358Z,3.44
2023-03-06T08:20:21.846Z,3.79
2023-03-06T08:22:43.359Z,3.97
2023-03-06T08:25:05.827Z,4.04
2023-03-06T08:27:27.282Z,3.98
2023-03-06T08:29:48.741Z,4.31
2023-03-06T08:32:11.960Z,4.32
2023-03-06T08:34:33.456Z,4.43
2023-03-06T08:36:54.975Z,4.35
2023-03-06T08:39:16.721Z,4.27
2023-03-06T08:41:38.228Z,4.14
2023-03-06T08:43:59.832Z,4.26
2023-03-06T08:46:23.969Z,3.92
2023-03-06T08:48:47.816Z,3.79
2023-03-06T08:51:09.975Z,3.74
2023-03-06T08:53:42.615Z,3.73
2023-03-06T08:56:05.152Z,3.79
2023-03-06T08:58:26.587Z,3.83
2023-03-06T09:00:48.998Z,3.96
2023-03-06T09:03:10.610Z,3.97
2023-03-06T09:05:32.750Z,4.08
2023-03-06T09:07:54.253Z,4.35
2023-03-06T09:10:18.511Z,4.34
2023-03-06T09:12:49.845Z,4.45
2023-03-06T09:15:13.574Z,4.50
2023-03-06T09:17:35.063Z,4.47
2023-03-06T09:19:56.594Z,4.41
2023-03-06T09:22:18.032Z,4.42
2023-03-06T09:24:39.464Z,4.41
2023-03-06T09:27:01.916Z,4.37
2023-03-06T09:29:23.342Z,4.35
2023-03-06T09:31:45.346Z,4.53
2023-03-06T09:34:06.901Z,4.69
2023-03-06T09:36:28.386Z,4.79
2023-03-06T09:38:50.483Z,4.93
2023-03-06T09:41:24.422Z,4.96
2023-03-06T09:43:50.040Z,5.29
2023-03-06T09:46:32.818Z,5.35
2023-03-06T09:49:10.322Z,5.47
2023-03-06T09:51:41.647Z,5.66
2023-03-06T09:54:14.055Z,5.28
2023-03-06T09:56:36.073Z,4.99
2023-03-06T09:59:05.007Z,5.09
2023-03-06T10:01:31.220Z,5.21
2023-03-06T10:04:02.709Z,5.00
2023-03-06T10:06:30.192Z,5.12
2023-03-06T10:08:59.415Z,5.13
2023-03-06T10:11:28.058Z,5.17
2023-03-06T10:14:14.024Z,5.26
2023-03-06T10:16:35.646Z,5.26
2023-03-06T10:19:02.486Z,5.25
2023-03-06T10:21:27.260Z,5.40
2023-03-06T10:23:55.030Z,5.54
2023-03-06T10:26:20.392Z,5.37
2023-03-06T10:28:52.623Z,5.59
2023-03-06T10:31:23.449Z,5.73
2023-03-06T10:33:50.676Z,5.41
2023-03-06T10:36:15.724Z,5.62
2023-03-06T10:38:38.249Z,5.63
2023-03-06T10:41:08.102Z,5.64
2023-03-06T10:43:29.677Z,5.84
2023-03-06T10:45:52.914Z,5.65
2023-03-06T10:48:19.738Z,5.88
2023-03-06T10:50:41.197Z,6.03
2023-03-06T10:53:05.887Z,6.14
2023-03-06T10:55:29.430Z,6.05
2023-03-06T10:57:50.857Z,5.67
2023-03-06T11:00:38.091Z,5.27
2023-03-06T11:03:07.032Z,5.04
2023-03-06T11:05:28.504Z,4.96
2023-03-06T11:08:01.716Z,4.74
2023-03-06T11:10:24.397Z,4.84
2023-03-06T11:13:01.498Z,4.64
2023-03-06T11:15:25.046Z,4.47
2023-03-06T11:17:54.227Z,4.56
2023-03-06T11:20:51.470Z,4.41
2023-03-06T11:23:19.584Z,4.30
2023-03-06T11:25:48.512Z,4.31
2023-03-06T11:28:24.140Z,4.66
2023-03-06T11:30:51.897Z,5.20
2023-03-06T11:33:39.484Z,5.41
2023-03-06T11:36:13.852Z,5.54
2023-03-06T11:38:51.984Z,5.53
2023-03-06T11:41:38.406Z,5.44
2023-03-06T11:44:39.790Z,5.36
2023-03-06T11:47:24.042Z,5.24
2023-03-06T11:49:51.275Z,4.89
2023-03-06T11:52:19.763Z,4.90
2023-03-06T11:54:41.316Z,4.93
2023-03-06T11:57:22.239Z,4.99
2023-03-06T11:59:59.190Z,5.10
2023-03-06T12:02:35.870Z,5.23
2023-03-06T12:05:31.694Z,4.99
2023-03-06T12:08:31.484Z,4.94
2023-03-06T12:10:59.993Z,4.81
2023-03-06T12:13:33.347Z,4.68
2023-03-06T12:16:13.148Z,4.66
2023-03-06T12:18:51.811Z,4.52
2023-03-06T12:21:27.741Z,4.45
2023-03-06T12:23:55.523Z,4.54
2023-03-06T12:26:44.891Z,4.62
2023-03-06T12:29:28.347Z,4.65
2023-03-06T12:31:55.146Z,4.82
2023-03-06T12:34:44.471Z,4.78
2023-03-06T12:37:20.842Z,4.75
2023-03-06T12:39:54.480Z,4.93
2023-03-06T12:42:36.702Z,4.97
2023-03-06T12:45:16.684Z,5.14
2023-03-06T12:47:43.140Z,5.31
2023-03-06T12:50:18.040Z,5.38
2023-03-06T12:52:39.664Z,5.37
2023-03-06T12:55:06.482Z,5.60
2023-03-06T12:57:29.775Z,5.59
2023-03-06T12:59:52.072Z,5.61
2023-03-06T13:02:43.622Z,5.57
2023-03-06T13:05:14.135Z,5.45
2023-03-06T13:08:04.748Z,5.69
2023-03-06T13:10:30.624Z,5.84
2023-03-06T13:13:01.092Z,6.05
2023-03-06T13:15:32.461Z,6.19
2023-03-06T13:17:53.947Z,6.21
2023-03-06T13:20:15.489Z,6.29
2023-03-06T13:22:36.993Z,5.98
2023-03-06T13:25:16.999Z,5.87
2023-03-06T13:27:53.472Z,6.09
2023-03-06T13:30:24.209Z,5.91
2023-03-06T13:32:45.700Z,5.84
2023-03-06T13:35:29.851Z,5.65
2023-03-06T13:37:52.865Z,5.37
2023-03-06T13:40:24.543Z,5.31
2023-03-06T13:42:45.968Z,5.02
2023-03-06T13:45:07.595Z,4.94
2023-03-06T13:47:55.737Z,4.70
2023-03-06T13:50:21.415Z,4.64
2023-03-06T13:53:13.458Z,4.54
2023-03-06T13:56:06.434Z,4.37
2023-03-06T13:58:51.646Z,4.31
2023-03-06T14:01:20.749Z,4.23
2023-03-06T14:04:10.257Z,4.14
2023-03-06T14:06:34.691Z,3.85
2023-03-06T14:08:56.265Z,3.96
2023-03-06T14:11:21.140Z,3.98
2023-03-06T14:13:50.170Z,3.94
2023-03-06T14:16:20.215Z,3.82
2023-03-06T14:18:46.467Z,3.79
2023-03-06T14:21:13.446Z,3.82
2023-03-06T14:23:42.387Z,3.83
2023-03-06T14:26:19.114Z,3.83
2023-03-06T14:28:42.542Z,4.01
2023-03-06T14:31:06.069Z,4.12
2023-03-06T14:33:32.198Z,4.17
2023-03-06T14:35:56.705Z,4.08
2023-03-06T14:38:18.281Z,4.18
2023-03-06T14:40:45.751Z,4.02
2023-03-06T14:43:20.462Z,4.02
2023-03-06T14:45:52.281Z,4.10
2023-03-06T14:48:15.216Z,4.11
2023-03-06T14:50:36.781Z,4.11
2023-03-06T14:52:58.162Z,4.12
2023-03-06T14:55:22.288Z,3.97
2023-03-06T14:57:43.937Z,4.11
2023-03-06T15:00:06.974Z,4.24
2023-03-06T15:02:32.941Z,4.33
2023-03-06T15:05:00.577Z,4.52
2023-03-06T15:07:26.807Z,4.38
2023-03-06T15:09:51.160Z,4.37
2023-03-06T15:12:18.542Z,4.55
2023-03-06T15:14:42.416Z,4.59
2023-03-06T15:17:19.204Z,4.64
2023-03-06T15:19:40.732Z,4.50
2023-03-06T15:22:02.502Z,4.46
2023-03-06T15:24:36.986Z,4.55
2023-03-06T15:27:05.374Z,4.60
2023-03-06T15:29:27.634Z,4.52
2023-03-06T15:31:49.587Z,4.36
2023-03-06T15:34:11.015Z,4.44
2023-03-06T15:36:35.137Z,4.35
2023-03-06T15:38:58.337Z,4.17
2023-03-06T15:41:30.368Z,4.25
2023-03-06T15:43:51.811Z,4.14
2023-03-06T15:46:13.500Z,4.01
2023-03-06T15:48:35.535Z,4.04
2023-03-06T15:50:57.375Z,4.01
2023-03-06T15:53:20.368Z,4.04
2023-03-06T15:55:42.108Z,4.23
2023-03-06T15:58:04.696Z,3.93
2023-03-06T16:00:29.420Z,3.91
2023-03-06T16:02:52.494Z,3.82
2023-03-06T16:05:18.258Z,3.79
2023-03-06T16:07:39.673Z,3.77
2023-03-06T16:10:01.124Z,3.77
2023-03-06T16:12:22.866Z,3.81
2023-03-06T16:14:47.290Z,3.72
2023-03-06T16:17:11.408Z,3.75
2023-03-06T16:19:32.839Z,3.73
2023-03-06T16:21:56.116Z,3.67
2023-03-06T16:24:18.154Z,3.63
2023-03-06T16:26:39.890Z,3.56
2023-03-06T16:29:01.517Z,3.67
2023-03-06T16:31:23.214Z,3.70
2023-03-06T16:33:44.713Z,3.64
2023-03-06T16:36:24.687Z,3.73
2023-03-06T16:38:46.625Z,3.67
2023-03-06T16:41:08.139Z,3.77
2023-03-06T16:43:29.590Z,3.74
2023-03-06T16:45:51.466Z,3.72
2023-03-06T16:48:19.651Z,3.67
2023-03-06T16:50:41.509Z,3.64
2023-03-06T16:53:04.127Z,3.67
2023-03-06T16:55:27.086Z,3.74
2023-03-06T16:57:48.619Z,3.78
2023-03-06T17:00:11.397Z,3.83
2023-03-06T17:02:33.024Z,3.87
2023-03-06T17:04:55.747Z,3.85
2023-03-06T17:07:17.253Z,3.93
2023-03-06T17:09:38.677Z,4.03
2023-03-06T17:12:00.180Z,3.98
2023-03-06T17:14:21.620Z,4.01
2023-03-06T17:16:43.116Z,4.00
2023-03-06T17:19:04.604Z,4.11
2023-03-06T17:21:26.986Z,4.19
2023-03-06T17:23:48.516Z,4.30
2023-03-06T17:26:15.910Z,4.50
2023-03-06T17:28:38.699Z,4.59
2023-03-06T17:31:01.755Z,4.34
2023-03-06T17:33:23.422Z,4.42
2023-03-06T17:35:44.999Z,4.57
2023-03-06T17:38:06.452Z,4.68
2023-03-06T17:40:27.983Z,4.56
2023-03-06T17:42:50.799Z,4.69
2023-03-06T17:45:12.319Z,4.81
2023-03-06T17:47:33.809Z,4.89
2023-03-06T17:49:55.253Z,4.83
2023-03-06T17:52:16.712Z,4.92
2023-03-06T17:54:38.118Z,4.96
2023-03-06T17:57:03.296Z,4.98
2023-03-06T17:59:25.980Z,4.66
2023-03-06T18:01:47.550Z,4.44
2023-03-06T18:04:10.291Z,4.44
2023-03-06T18:06:33.549Z,4.27
2023-03-06T18:08:55.003Z,4.35
2023-03-06T18:11:16.770Z,4.46
2023-03-06T18:13:40.882Z,4.54
2023-03-06T18:16:03.799Z,4.55
2023-03-06T18:18:26.078Z,4.68
2023-03-06T18:20:48.010Z,4.82
2023-03-06T18:23:09.539Z,4.92
2023-03-06T18:25:32.275Z,5.00
2023-03-06T18:27:53.759Z,5.07
2023-03-06T18:30:15.363Z,5.10
2023-03-06T18:32:36.863Z,5.13
2023-03-06T18:34:58.394Z,5.17
2023-03-06T18:37:19.846Z,5.23
2023-03-06T18:39:41.354Z,5.21
2023-03-06T18:42:03.185Z,5.26
2023-03-06T18:44:24.665Z,5.31
2023-03-06T18:46:46.195Z,5.32
2023-03-06T18:49:07.750Z,5.33
2023-03-06T18:51:29.547Z,5.34
2023-03-06T18:53:51.056Z,5.37
2023-03-06T18:56:17.864Z,5.41
2023-03-06T18:58:39.326Z,5.44
2023-03-06T19:01:06.505Z,5.39
2023-03-06T19:03:27.995Z,5.36
2023-03-06T19:05:49.818Z,5.45
2023-03-06T19:08:12.222Z,5.10
2023-03-06T19:10:38.926Z,5.13
2023-03-06T19:13:00.422Z,5.23
2023-03-06T19:15:21.892Z,5.23
2023-03-06T19:17:43.426Z,4.94
2023-03-06T19:20:05.435Z,4.69
2023-03-06T19:22:26.905Z,4.75
2023-03-06T19:24:50.086Z,4.56
2023-03-06T19:27:11.888Z,4.47
2023-03-06T19:29:33.434Z,4.22
2023-03-06T19:31:57.120Z,4.05
2023-03-06T19:34:18.808Z,4.19
2023-03-06T19:36:40.920Z,3.76
2023-03-06T19:39:05.089Z,3.58
2023-03-06T19:41:27.745Z,3.47
2023-03-06T19:43:52.988Z,3.47
2023-03-06T19:46:14.961Z,3.54
2023-03-06T19:48:36.676Z,3.72
2023-03-06T19:51:03.247Z,3.89
2023-03-06T19:53:24.755Z,4.04
2023-03-06T19:55:46.175Z,4.13
2023-03-06T19:58:08.542Z,4.16
2023-03-06T20:00:30.331Z,4.21
2023-03-06T20:02:51.803Z,4.25
2023-03-06T20:05:13.242Z,4.26
2023-03-06T20:07:35.364Z,4.07
2023-03-06T20:10:00.395Z,3.72
2023-03-06T20:12:21.836Z,3.65
2023-03-06T20:14:45.954Z,3.74
2023-03-06T20:17:07.969Z,3.81
2023-03-06T20:19:29.747Z,3.90
2023-03-06T20:21:51.412Z,3.99
2023-03-06T20:24:16.744Z,4.02
2023-03-06T20:26:38.610Z,4.00
2023-03-06T20:29:00.373Z,3.68
2023-03-06T20:31:24.946Z,3.52
2023-03-06T20:33:48.482Z,3.40
2023-03-06T20:36:13.976Z,3.40
2023-03-06T20:38:35.448Z,3.22
2023-03-06T20:40:57.904Z,3.15
2023-03-06T20:43:19.367Z,3.06
2023-03-06T20:45:40.814Z,2.89
2023-03-06T20:48:02.393Z,2.88
2023-03-06T20:50:24.082Z,2.81
2023-03-06T20:52:45.537Z,2.69
2023-03-06T20:55:07.489Z,2.68
2023-03-06T20:57:28.927Z,2.46
2023-03-06T20:59:50.369Z,2.52
2023-03-06T21:02:11.885Z,2.60
2023-03-06T21:04:33.409Z,2.48
2023-03-06T21:06:54.974Z,2.49
2023-03-06T21:09:17.410Z,2.45
2023-03-06T21:11:38.932Z,2.61
2023-03-06T21:14:00.989Z,2.57
2023-03-06T21:16:24.615Z,2.52
2023-03-06T21:18:46.465Z,2.54
2023-03-06T21:21:14.032Z,2.38
2023-03-06T21:23:35.548Z,2.40
2023-03-06T21:25:57.190Z,2.50
2023-03-06T21:28:19.040Z,2.41
2023-03-06T21:30:40.478Z,2.46
2023-03-06T21:33:01.932Z,2.42
2023-03-06T21:35:23.463Z,2.47
2023-03-06T21:37:45.562Z,2.47
2023-03-06T21:40:07.814Z,2.62
2023-03-06T21:42:29.469Z,2.71
2023-03-06T21:44:50.942Z,2.64
2023-03-06T21:47:12.371Z,2.57
2023-03-06T21:49:33.864Z,2.61
2023-03-06T21:51:55.794Z,2.71
2023-03-06T21:54:17.259Z,2.70
2023-03-06T21:56:38.755Z,2.81
2023-03-06T21:59:00.748Z,2.76
2023-03-06T22:01:27.606Z,2.70
2023-03-06T22:03:49.221Z,2.77
2023-03-06T22:06:16.330Z,2.82
2023-03-06T22:08:38.288Z,2.82
2023-03-06T22:10:59.762Z,2.72
2023-03-06T22:13:22.220Z,2.72
2023-03-06T22:15:51.443Z,2.61
2023-03-06T22:18:15.781Z,2.48
2023-03-06T22:20:39.475Z,2.55
2023-03-06T22:23:00.907Z,2.53
2023-03-06T22:25:22.343Z,2.42
2023-03-06T22:27:43.761Z,2.51
2023-03-06T22:30:05.675Z,2.44
2023-03-06T22:32:27.174Z,2.41
2023-03-06T22:34:50.173Z,2.35
2023-03-06T22:37:11.630Z,2.39
2023-03-06T22:39:33.092Z,2.26
2023-03-06T22:41:58.125Z,2.23
2023-03-06T22:44:19.622Z,2.16
2023-03-06T22:46:41.682Z,2.15
2023-03-06T22:49:03.287Z,2.15
2023-03-06T22:51:27.023Z,2.20
2023-03-06T22:53:48.984Z,2.20
2023-03-06T22:56:12.658Z,2.38
2023-03-06T22:58:37.164Z,2.19
2023-03-06T23:01:13.028Z,2.14
2023-03-06T23:03:39.868Z,2.07
2023-03-06T23:06:01.364Z,2.04
2023-03-06T23:08:22.917Z,2.01
2023-03-06T23:10:44.368Z,1.98
2023-03-06T23:13:05.893Z,2.02
2023-03-06T23:15:27.431Z,1.91
2023-03-06T23:17:51.108Z,1.97
2023-03-06T23:20:13.724Z,2.01
2023-03-06T23:22:35.457Z,2.02
2023-03-06T23:24:56.916Z,2.02
2023-03-06T23:27:19.330Z,1.98
2023-03-06T23:29:40.849Z,2.07
2023-03-06T23:32:02.412Z,1.95
2023-03-06T23:34:23.993Z,1.93
2023-03-06T23:36:45.510Z,1.80
2023-03-06T23:39:06.967Z,1.80
2023-03-06T23:41:28.597Z,1.82
2023-03-06T23:43:50.598Z,1.82
2023-03-06T23:46:13.003Z,1.87
2023-03-06T23:48:35.958Z,1.92
2023-03-06T23:50:57.475Z,1.87
2023-03-06T23:53:18.918Z,1.99
2023-03-06T23:55:42.123Z,1.95
2023-03-06T23:58:03.558Z,1.84
